Time;durP1;ratioP1;P1;durP2;ratioP2;P2;SDS_P1;SDS_P2;PMS_P1;PMS_P2;Temp;Humidity;BMP_temperature;BMP_pressure;BME280_temperature;BME280_humidity;BME280_pressure;Samples;Min_cycle;Max_cycle;Signal;HPM_P1;HPM_P2
2022/11/20 00:01:14;;;;;;;32.60;18.33;;;;;;;1.44;100.00;100032.00;4998241;28;20585;-72
2022/11/20 00:03:41;;;;;;;29.52;17.42;;;;;;;1.40;100.00;100033.81;4998091;28;20391;-71
2022/11/20 00:06:11;;;;;;;30.27;17.88;;;;;;;1.41;100.00;100032.06;4989768;28;20146;-71
2022/11/20 00:08:38;;;;;;;33.15;18.65;;;;;;;1.25;100.00;100014.94;4990187;28;20049;-74
2022/11/20 00:11:15;;;;;;;28.95;17.50;;;;;;;1.41;100.00;100037.28;4983290;28;20402;-71
2022/11/20 00:13:49;;;;;;;29.85;17.52;;;;;;;1.46;100.00;100035.44;4997804;28;20096;-70
2022/11/20 00:16:18;;;;;;;30.98;18.75;;;;;;;1.46;100.00;100027.63;4992448;28;20071;-71
2022/11/20 00:18:46;;;;;;;31.00;18.27;;;;;;;1.49;100.00;100029.31;4995826;28;20038;-71
2022/11/20 00:21:16;;;;;;;31.30;18.02;;;;;;;1.31;100.00;100020.03;5001073;28;20065;-72
2022/11/20 00:23:43;;;;;;;29.50;18.05;;;;;;;1.40;100.00;100036.44;4998335;28;20054;-72
2022/11/20 00:26:12;;;;;;;30.35;18.23;;;;;;;1.53;100.00;100049.28;4990408;28;20655;-70
2022/11/20 00:28:39;;;;;;;32.58;18.17;;;;;;;1.50;100.00;100038.88;4988591;28;20133;-71
2022/11/20 00:31:09;;;;;;;29.73;16.90;;;;;;;1.50;100.00;100038.88;4997165;28;20124;-71
2022/11/20 00:33:35;;;;;;;31.10;18.23;;;;;;;1.50;100.00;100039.75;4997393;28;20553;-73
2022/11/20 00:36:05;;;;;;;31.33;17.63;;;;;;;1.46;100.00;100035.44;4998069;28;20125;-71
2022/11/20 00:38:32;;;;;;;29.33;17.17;;;;;;;1.46;100.00;100030.22;4986251;28;20583;-72
2022/11/20 00:41:01;;;;;;;30.67;17.33;;;;;;;1.47;100.00;100025.88;4998866;28;20050;-73
2022/11/20 00:43:28;;;;;;;29.60;17.58;;;;;;;1.44;100.00;100034.59;4997984;28;20082;-71
2022/11/20 00:46:03;;;;;;;31.92;17.48;;;;;;;1.42;100.00;100024.19;4992690;28;20571;-70
2022/11/20 00:48:30;;;;;;;33.92;19.13;;;;;;;1.49;100.00;100006.69;4983873;28;20061;-71
2022/11/20 00:50:57;;;;;;;29.05;17.48;;;;;;;1.50;100.00;100008.44;4994954;28;20516;-71
2022/11/20 00:53:24;;;;;;;28.33;17.60;;;;;;;1.48;100.00;100007.59;5003670;28;20054;-72
2022/11/20 00:56:03;;;;;;;28.98;17.48;;;;;;;1.42;100.00;100011.16;4991361;28;20052;-72
2022/11/20 00:58:35;;;;;;;28.52;17.63;;;;;;;1.42;100.00;100017.28;4984274;28;20076;-70
2022/11/20 01:01:07;;;;;;;28.90;17.55;;;;;;;1.28;100.00;99989.63;4999074;28;20085;-73
2022/11/20 01:03:36;;;;;;;31.15;17.58;;;;;;;1.32;100.00;99991.31;4990437;28;20053;-71
2022/11/20 01:06:09;;;;;;;31.48;18.08;;;;;;;1.44;100.00;100008.50;5000394;28;20658;-74
2022/11/20 01:08:36;;;;;;;30.52;17.30;;;;;;;1.28;100.00;99984.41;4985004;28;20046;-73
2022/11/20 01:11:09;;;;;;;30.35;17.90;;;;;;;1.37;100.00;100022.56;4992259;28;20055;-72
2022/11/20 01:13:37;;;;;;;32.42;19.10;;;;;;;1.32;100.00;99996.53;4995001;28;20180;-72
2022/11/20 01:16:04;;;;;;;31.08;17.55;;;;;;;1.36;100.00;100003.44;4994198;28;20069;-71
2022/11/20 01:18:31;;;;;;;31.90;18.33;;;;;;;1.33;100.00;100000.00;4978757;28;20161;-70
2022/11/20 01:21:07;;;;;;;31.85;19.08;;;;;;;1.33;100.00;100013.91;4997219;28;20152;-72
2022/11/20 01:23:35;;;;;;;32.25;19.17;;;;;;;1.32;100.00;100020.00;4998002;28;20050;-70
2022/11/20 01:26:04;;;;;;;32.85;18.75;;;;;;;1.26;100.00;100009.66;4996029;28;20054;-71
2022/11/20 01:28:31;;;;;;;33.22;18.38;;;;;;;1.27;100.00;100010.53;4982550;28;20056;-74
2022/11/20 01:30:58;;;;;;;33.47;19.42;;;;;;;1.34;100.00;100020.00;4999596;28;20137;-70
2022/11/20 01:33:25;;;;;;;37.13;20.33;;;;;;;1.33;100.00;100013.06;4992365;28;20125;-74
2022/11/20 01:35:52;;;;;;;32.78;19.15;;;;;;;1.30;100.00;100016.56;5002234;28;20053;-73
2022/11/20 01:38:20;;;;;;;34.55;19.55;;;;;;;1.27;100.00;100008.78;4978881;28;20072;-72
2022/11/20 01:40:54;;;;;;;34.28;18.75;;;;;;;1.30;100.00;100010.47;4990593;28;20054;-72
2022/11/20 01:43:21;;;;;;;34.35;19.55;;;;;;;1.11;100.00;99978.59;4997131;28;20137;-72
2022/11/20 01:45:56;;;;;;;35.53;19.92;;;;;;;1.19;100.00;100010.66;4998657;28;20056;-73
2022/11/20 01:48:28;;;;;;;38.15;20.73;;;;;;;1.15;100.00;100011.56;4981219;28;20148;-72
2022/11/20 01:50:55;;;;;;;38.40;20.17;;;;;;;1.12;100.00;100006.41;4992391;28;20149;-72
2022/11/20 01:53:27;;;;;;;35.72;20.65;;;;;;;1.12;100.00;100000.31;5002564;28;20108;-72
2022/11/20 01:55:58;;;;;;;35.55;19.75;;;;;;;1.09;100.00;100003.00;4993666;28;20047;-72
2022/11/20 01:58:30;;;;;;;40.22;21.10;;;;;;;1.05;100.00;99997.81;4983553;28;20068;-72
2022/11/20 02:00:56;;;;;;;35.60;19.55;;;;;;;1.01;100.00;100001.34;4999876;28;20077;-73
2022/11/20 02:03:23;;;;;;;40.25;21.58;;;;;;;1.04;100.00;100011.75;4991072;28;20522;-72
2022/11/20 02:05:57;;;;;;;36.75;20.17;;;;;;;0.89;100.00;99965.03;4994776;28;20058;-73
2022/11/20 02:08:24;;;;;;;37.13;20.65;;;;;;;0.98;100.00;99959.69;4984283;28;20056;-71
2022/11/20 02:10:50;;;;;;;36.38;19.67;;;;;;;1.18;100.00;99977.63;4992228;28;20085;-71
2022/11/20 02:16:03;;;;;;;37.70;21.40;;;;;;;1.14;100.00;99993.34;4997685;28;20133;-71
2022/11/20 02:18:30;;;;;;;37.25;21.27;;;;;;;1.14;100.00;100003.78;4990398;28;20512;-70
2022/11/20 02:21:20;;;;;;;36.58;21.10;;;;;;;1.12;100.00;100006.41;4999020;28;20132;-70
2022/11/20 02:24:09;;;;;;;39.10;21.45;;;;;;;1.16;100.00;99996.78;4990806;28;20047;-71
2022/11/20 02:26:49;;;;;;;38.97;20.10;;;;;;;1.17;100.00;99988.94;4995650;28;20409;-71
2022/11/20 02:29:22;;;;;;;39.50;21.33;;;;;;;1.23;100.00;99993.22;4989631;28;20057;-70
2022/11/20 02:31:50;;;;;;;35.33;20.25;;;;;;;1.17;100.00;99975.91;4997952;28;20058;-72
2022/11/20 02:34:16;;;;;;;34.80;20.15;;;;;;;1.01;100.00;99946.59;4997263;28;20050;-71
2022/11/20 02:36:44;;;;;;;38.78;20.90;;;;;;;1.19;100.00;99974.16;4996333;28;20125;-72
2022/11/20 02:39:13;;;;;;;35.72;19.85;;;;;;;1.03;100.00;99951.78;4988785;28;20073;-72
2022/11/20 02:41:39;;;;;;;36.00;20.08;;;;;;;1.18;100.00;99969.81;4993601;28;20124;-71
2022/11/20 02:44:06;;;;;;;36.80;20.17;;;;;;;1.18;100.00;99976.78;5001789;28;20047;-72
2022/11/20 02:46:33;;;;;;;39.45;21.02;;;;;;;1.12;100.00;99969.03;5000484;28;20089;-72
2022/11/20 02:49:02;;;;;;;36.05;20.55;;;;;;;1.20;100.00;99981.09;4986687;28;20140;-72
2022/11/20 02:51:29;;;;;;;35.60;20.20;;;;;;;1.25;100.00;99978.41;5000240;28;20085;-72
2022/11/20 02:53:55;;;;;;;34.35;20.08;;;;;;;1.24;100.00;99987.13;5006586;28;20050;-73
2022/11/20 02:56:22;;;;;;;35.80;19.63;;;;;;;1.21;100.00;99989.78;4991433;28;20399;-72
2022/11/20 02:58:49;;;;;;;39.42;21.38;;;;;;;1.23;100.00;99996.69;4987765;28;20136;-73
2022/11/20 03:01:16;;;;;;;36.78;20.52;;;;;;;1.22;100.00;99999.31;5001994;28;20046;-73
2022/11/20 03:03:43;;;;;;;33.58;20.08;;;;;;;1.19;100.00;99988.94;4999367;28;20363;-73
2022/11/20 03:06:09;;;;;;;37.00;20.67;;;;;;;1.22;100.00;99983.66;4996877;28;20053;-71
2022/11/20 03:08:36;;;;;;;36.05;19.40;;;;;;;1.16;100.00;99988.97;4986970;28;20061;-72
2022/11/20 03:11:07;;;;;;;36.95;20.55;;;;;;;1.17;100.00;99985.47;4992406;28;20080;-71
2022/11/20 03:13:34;;;;;;;35.90;20.92;;;;;;;1.04;100.00;99948.31;5003515;28;20490;-70
2022/11/20 03:16:12;;;;;;;36.58;19.88;;;;;;;1.21;100.00;99971.50;4996518;28;20053;-71
2022/11/20 03:18:40;;;;;;;37.42;20.83;;;;;;;1.16;100.00;99963.75;4972952;28;20047;-73
2022/11/20 03:21:07;;;;;;;37.30;21.10;;;;;;;1.03;100.00;99968.31;4997941;28;20046;-72
2022/11/20 03:23:35;;;;;;;36.25;20.70;;;;;;;1.00;100.00;99972.69;5000154;28;20046;-69
2022/11/20 03:26:28;;;;;;;38.60;21.45;;;;;;;0.95;100.00;99983.19;4995183;28;20060;-73
2022/11/20 03:28:57;;;;;;;39.72;20.95;;;;;;;0.87;100.00;99981.59;4978693;28;20675;-70
2022/11/20 03:31:26;;;;;;;40.00;21.10;;;;;;;0.86;100.00;99985.06;4995739;28;20055;-71
2022/11/20 03:33:53;;;;;;;40.97;21.30;;;;;;;0.82;100.00;99984.25;4992389;28;20050;-70
2022/11/20 03:36:20;;;;;;;42.42;23.17;;;;;;;0.79;100.00;99973.84;4989842;28;20054;-71
2022/11/20 03:38:48;;;;;;;38.40;21.67;;;;;;;0.88;100.00;99978.97;4993056;28;20081;-71
2022/11/20 03:41:18;;;;;;;40.45;22.50;;;;;;;0.87;100.00;99981.59;4999732;28;20134;-71
2022/11/20 03:43:52;;;;;;;42.10;22.25;;;;;;;0.97;100.00;99984.03;5001889;28;20073;-72
2022/11/20 03:46:19;;;;;;;43.50;23.08;;;;;;;0.96;100.00;99976.22;4998918;28;20116;-71
2022/11/20 03:48:46;;;;;;;42.60;22.55;;;;;;;0.96;100.00;99977.09;4984495;28;20065;-72
2022/11/20 03:51:21;;;;;;;41.28;21.92;;;;;;;0.76;100.00;99939.19;4995959;28;20093;-72
2022/11/20 03:53:51;;;;;;;43.72;23.30;;;;;;;0.88;100.00;99968.53;5003832;28;20460;-72
2022/11/20 03:56:20;;;;;;;39.58;21.52;;;;;;;0.91;100.00;99978.91;4996600;28;20134;-72
2022/11/20 03:58:46;;;;;;;41.00;22.48;;;;;;;0.82;100.00;99960.78;4990454;28;20458;-72
2022/11/20 04:01:16;;;;;;;42.85;23.35;;;;;;;0.79;100.00;99962.59;5000278;28;20510;-72
2022/11/20 04:03:44;;;;;;;45.97;24.20;;;;;;;0.72;100.00;99950.53;4994508;28;20137;-72
2022/11/20 04:06:19;;;;;;;42.90;23.50;;;;;;;0.67;100.00;99929.75;4997389;28;20413;-71
2022/11/20 04:08:46;;;;;;;43.63;22.50;;;;;;;0.88;100.00;99959.84;4972843;28;20039;-71
2022/11/20 04:11:26;;;;;;;42.53;22.30;;;;;;;0.92;100.00;99961.53;4988705;28;20491;-72
2022/11/20 04:14:01;;;;;;;43.58;22.48;;;;;;;0.99;100.00;99966.63;5003227;28;20056;-73
2022/11/20 04:16:36;;;;;;;41.58;22.77;;;;;;;1.09;100.00;99977.78;4993978;28;20133;-72
2022/11/20 04:19:06;;;;;;;41.40;22.10;;;;;;;1.08;100.00;99970.00;4981007;28;20073;-71
2022/11/20 04:21:32;;;;;;;42.78;22.02;;;;;;;1.01;100.00;99949.22;5005128;28;20066;-72
2022/11/20 04:23:59;;;;;;;37.20;21.27;;;;;;;0.97;100.00;99947.53;4999235;28;20105;-70
2022/11/20 04:26:27;;;;;;;39.47;22.13;;;;;;;1.00;100.00;99944.00;5002484;28;20050;-71
2022/11/20 04:28:54;;;;;;;36.45;20.20;;;;;;;0.99;100.00;99937.94;4986859;28;20049;-72
2022/11/20 04:31:27;;;;;;;41.47;22.70;;;;;;;0.88;100.00;99931.19;5001037;28;20064;-72
2022/11/20 04:33:54;;;;;;;42.85;22.95;;;;;;;0.91;100.00;99955.47;4992660;28;20133;-71
2022/11/20 04:36:23;;;;;;;41.47;22.48;;;;;;;0.85;100.00;99950.31;4999875;28;20054;-72
2022/11/20 04:38:51;;;;;;;42.47;22.48;;;;;;;0.83;100.00;99946.00;4984345;28;20047;-71
2022/11/20 04:41:27;;;;;;;42.63;21.80;;;;;;;0.83;100.00;99943.41;4995393;28;20388;-71
2022/11/20 04:43:59;;;;;;;39.60;22.35;;;;;;;0.74;100.00;99927.91;5001506;28;20134;-72
2022/11/20 04:46:27;;;;;;;41.72;22.13;;;;;;;0.89;100.00;99946.81;5009397;28;20050;-72
2022/11/20 04:48:54;;;;;;;38.70;21.33;;;;;;;0.68;100.00;99908.88;4986080;28;20049;-71
2022/11/20 04:51:21;;;;;;;40.55;20.98;;;;;;;0.96;100.00;99945.81;4997271;28;20361;-71
2022/11/20 04:53:48;;;;;;;40.78;21.88;;;;;;;0.86;100.00;99928.59;5004879;28;20050;-72
2022/11/20 04:56:15;;;;;;;39.85;21.80;;;;;;;0.91;100.00;99939.81;4990195;28;20398;-72
2022/11/20 04:58:41;;;;;;;41.15;21.88;;;;;;;0.98;100.00;99920.56;4982017;28;20066;-70
2022/11/20 05:01:14;;;;;;;39.60;22.20;;;;;;;1.06;100.00;99936.13;4999832;28;20122;-69
2022/11/20 05:03:42;;;;;;;36.22;20.83;;;;;;;0.99;100.00;99937.06;4994653;28;20140;-73
2022/11/20 05:06:10;;;;;;;40.88;21.45;;;;;;;0.94;100.00;99942.38;5002974;28;20125;-72
2022/11/20 05:08:37;;;;;;;39.25;20.42;;;;;;;0.91;100.00;99939.81;4979133;28;20133;-73
2022/11/20 05:11:06;;;;;;;37.65;20.83;;;;;;;0.87;100.00;99935.53;4990439;28;20141;-72
2022/11/20 05:13:33;;;;;;;46.63;22.15;;;;;;;0.85;100.00;99937.28;4997103;28;20149;-72
2022/11/20 05:16:12;;;;;;;37.08;20.23;;;;;;;0.81;100.00;99943.44;4995820;28;20046;-72
2022/11/20 05:18:39;;;;;;;40.63;20.48;;;;;;;0.60;100.00;99904.66;4975417;28;20050;-71
2022/11/20 05:21:08;;;;;;;43.05;22.67;;;;;;;0.82;100.00;99941.69;4996474;28;20133;-72
2022/11/20 05:23:35;;;;;;;40.03;21.75;;;;;;;0.80;100.00;99933.03;4999019;28;20462;-70
2022/11/20 05:26:03;;;;;;;41.58;21.63;;;;;;;0.79;100.00;99928.72;5000043;28;20552;-72
2022/11/20 05:28:30;;;;;;;40.45;20.73;;;;;;;0.81;100.00;99925.19;4991019;28;20498;-73
2022/11/20 05:31:07;;;;;;;40.38;21.45;;;;;;;0.86;100.00;99927.72;4998412;28;20104;-73
2022/11/20 05:33:35;;;;;;;38.28;20.02;;;;;;;0.68;100.00;99898.44;4990629;28;20038;-73
2022/11/20 05:36:05;;;;;;;41.55;21.90;;;;;;;0.73;100.00;99913.16;5002474;28;20085;-70
2022/11/20 05:38:32;;;;;;;39.80;21.80;;;;;;;0.77;100.00;99907.91;4985766;28;20065;-71
2022/11/20 05:41:16;;;;;;;38.92;20.73;;;;;;;0.75;100.00;99903.59;4991078;28;20068;-73
2022/11/20 05:43:44;;;;;;;39.90;21.05;;;;;;;0.89;100.00;99938.97;4999995;28;20486;-71
2022/11/20 05:46:13;;;;;;;37.20;20.65;;;;;;;0.89;100.00;99943.31;4997914;28;20042;-73
2022/11/20 05:48:42;;;;;;;36.30;20.48;;;;;;;0.84;100.00;99938.19;4977136;28;20141;-71
2022/11/20 05:51:12;;;;;;;36.40;20.10;;;;;;;0.86;100.00;99946.84;4988073;28;20121;-71
2022/11/20 05:53:39;;;;;;;35.50;19.85;;;;;;;0.79;100.00;99937.38;4994214;28;20069;-71
2022/11/20 05:56:16;;;;;;;38.42;19.42;;;;;;;0.78;100.00;99942.63;4998598;28;20046;-71
2022/11/20 05:58:43;;;;;;;37.78;20.35;;;;;;;0.77;100.00;99928.75;4976994;28;20263;-69
2022/11/20 06:01:13;;;;;;;38.00;20.80;;;;;;;0.79;100.00;99934.75;4999522;28;20054;-71
2022/11/20 06:03:42;;;;;;;39.30;20.30;;;;;;;0.71;100.00;99907.97;4997740;28;20050;-71
2022/11/20 06:06:08;;;;;;;39.05;20.80;;;;;;;0.87;100.00;99925.09;5001094;28;20068;-73
2022/11/20 06:08:35;;;;;;;39.47;21.13;;;;;;;0.88;100.00;99926.81;4988429;28;20089;-71
2022/11/20 06:11:06;;;;;;;41.03;21.58;;;;;;;0.86;100.00;99923.38;4992913;28;20060;-70
2022/11/20 06:13:33;;;;;;;44.90;21.27;;;;;;;0.75;100.00;99896.63;5005672;28;20050;-72
2022/11/20 06:16:07;;;;;;;45.28;22.35;;;;;;;0.96;100.00;99922.34;5000783;28;20453;-72
2022/11/20 06:18:34;;;;;;;42.67;21.92;;;;;;;0.98;100.00;99932.75;4988545;28;20090;-71
2022/11/20 06:21:06;;;;;;;44.72;23.38;;;;;;;0.91;100.00;99920.72;4995189;28;20116;-72
2022/11/20 06:23:34;;;;;;;45.17;22.02;;;;;;;0.98;100.00;99920.56;5002264;28;20564;-71
2022/11/20 06:26:06;;;;;;;45.13;22.42;;;;;;;0.79;100.00;99882.63;4998177;28;20058;-72
2022/11/20 06:28:33;;;;;;;47.13;22.30;;;;;;;0.99;100.00;99919.69;4992769;28;20051;-70
2022/11/20 06:30:59;;;;;;;49.28;23.27;;;;;;;0.97;100.00;99923.19;4989066;28;20049;-71
2022/11/20 06:33:26;;;;;;;50.80;23.13;;;;;;;0.80;100.00;99892.19;4991606;28;20117;-70
2022/11/20 06:35:57;;;;;;;51.60;23.10;;;;;;;0.99;100.00;99922.31;5001799;28;20422;-71
2022/11/20 06:38:27;;;;;;;49.47;24.10;;;;;;;0.89;100.00;99923.34;4997500;28;20054;-71
2022/11/20 06:40:54;;;;;;;51.13;24.02;;;;;;;0.77;100.00;99913.09;4987823;28;20086;-72
2022/11/20 06:43:21;;;;;;;48.78;23.58;;;;;;;0.89;100.00;99931.16;4994065;28;20431;-72
2022/11/20 06:45:56;;;;;;;54.22;23.33;;;;;;;0.94;100.00;99931.09;5001557;28;20146;-72
2022/11/20 06:48:23;;;;;;;53.83;24.75;;;;;;;0.88;100.00;99925.97;4994921;28;20138;-71
2022/11/20 06:50:50;;;;;;;56.55;24.13;;;;;;;0.88;100.00;99947.69;4990597;28;20142;-72
2022/11/20 06:53:17;;;;;;;59.47;25.50;;;;;;;0.76;100.00;99921.81;5004284;28;20356;-72
2022/11/20 06:55:45;;;;;;;58.55;25.55;;;;;;;0.87;100.00;99935.53;4999094;28;20060;-72
2022/11/20 06:58:12;;;;;;;65.60;25.95;;;;;;;0.89;100.00;99930.28;5007493;28;20486;-71
2022/11/20 07:00:39;;;;;;;65.35;27.40;;;;;;;0.94;100.00;99937.16;4999234;28;20138;-74
2022/11/20 07:03:08;;;;;;;60.83;26.70;;;;;;;0.98;100.00;99932.75;4993853;28;20070;-74
2022/11/20 07:05:35;;;;;;;62.60;25.95;;;;;;;0.93;100.00;99927.63;5005042;28;20494;-71
2022/11/20 07:08:03;;;;;;;63.85;24.70;;;;;;;0.72;100.00;99898.41;4997953;28;20141;-72
2022/11/20 07:10:30;;;;;;;65.85;26.27;;;;;;;0.89;100.00;99923.34;4977556;28;20096;-71
2022/11/20 07:12:57;;;;;;;54.78;25.23;;;;;;;1.05;100.00;99929.16;5001465;28;20486;-72
2022/11/20 07:15:25;;;;;;;62.53;25.95;;;;;;;1.22;100.00;99931.50;5002482;28;20478;-72
2022/11/20 07:17:52;;;;;;;59.42;25.67;;;;;;;1.21;100.00;99935.00;4996282;28;20054;-71
2022/11/20 07:20:18;;;;;;;57.90;26.00;;;;;;;1.23;100.00;99926.28;4981929;28;20060;-72
2022/11/20 07:22:45;;;;;;;59.92;26.20;;;;;;;1.29;100.00;99928.75;5003629;28;20069;-70
2022/11/20 07:25:12;;;;;;;62.38;26.45;;;;;;;1.28;100.00;99931.38;4996206;28;20078;-71
2022/11/20 07:27:38;;;;;;;71.97;27.85;;;;;;;1.21;100.00;99928.03;5000181;28;20124;-71
2022/11/20 07:30:06;;;;;;;64.38;26.38;;;;;;;1.24;100.00;99932.34;4980042;28;20042;-73
2022/11/20 07:32:33;;;;;;;59.13;25.30;;;;;;;1.31;100.00;99920.91;4999799;28;20056;-72
2022/11/20 07:34:59;;;;;;;65.10;26.98;;;;;;;1.33;100.00;99911.31;5000839;28;20525;-71
2022/11/20 07:37:26;;;;;;;59.33;26.70;;;;;;;1.49;100.00;99928.41;4998838;28;20081;-71
2022/11/20 07:39:52;;;;;;;60.70;25.85;;;;;;;1.49;100.00;99927.56;4988040;28;20050;-71
2022/11/20 07:42:19;;;;;;;55.75;25.58;;;;;;;1.48;100.00;99924.09;4994115;28;20133;-71
2022/11/20 07:44:46;;;;;;;67.05;25.98;;;;;;;1.48;100.00;99921.47;4998564;28;20107;-70
2022/11/20 07:47:12;;;;;;;62.75;26.52;;;;;;;1.48;100.00;99924.09;5002299;28;20057;-70
2022/11/20 07:49:39;;;;;;;61.17;27.00;;;;;;;1.50;100.00;99937.13;4989362;28;20454;-70
2022/11/20 07:52:05;;;;;;;61.97;26.45;;;;;;;1.50;100.00;99939.72;4996428;28;20719;-69
2022/11/20 07:54:32;;;;;;;63.03;27.15;;;;;;;1.33;100.00;99914.78;5002545;28;20057;-68
2022/11/20 07:56:58;;;;;;;68.80;28.23;;;;;;;1.53;100.00;99939.69;4993815;28;20132;-69
2022/11/20 07:59:25;;;;;;;66.22;27.70;;;;;;;1.50;100.00;99935.38;4986482;28;20074;-69
2022/11/20 08:01:52;;;;;;;83.30;30.05;;;;;;;1.51;100.00;99944.91;4998533;28;20060;-69
2022/11/20 08:04:18;;;;;;;79.47;29.52;;;;;;;1.51;100.00;99950.13;4994784;28;20061;-69
2022/11/20 08:06:45;;;;;;;77.88;31.23;;;;;;;1.51;100.00;99954.50;5004900;28;20475;-69
2022/11/20 08:09:11;;;;;;;74.63;29.70;;;;;;;1.52;100.00;99959.69;4996702;28;20061;-69
2022/11/20 08:14:23;;;;;;;76.07;29.73;;;;;;;1.49;100.00;99957.13;5000440;28;20141;-68
2022/11/20 08:16:50;;;;;;;78.00;29.00;;;;;;;1.54;100.00;99955.31;4996718;28;20057;-69
2022/11/20 08:19:18;;;;;;;82.15;30.80;;;;;;;1.51;100.00;99960.56;4993469;28;20051;-69
2022/11/20 08:21:45;;;;;;;78.95;30.05;;;;;;;1.54;100.00;99955.31;4990079;28;20050;-69
2022/11/20 08:24:11;;;;;;;78.15;30.40;;;;;;;1.38;100.00;99918.19;4994443;28;20455;-70
2022/11/20 08:26:39;;;;;;;81.20;31.95;;;;;;;1.59;100.00;99966.50;4992677;28;20468;-68
2022/11/20 08:29:11;;;;;;;81.22;30.63;;;;;;;1.55;100.00;99956.16;4989380;28;20154;-70
2022/11/20 08:31:38;;;;;;;80.95;31.45;;;;;;;1.64;100.00;99972.50;4987757;28;20050;-69
2022/11/20 08:34:05;;;;;;;88.45;32.17;;;;;;;1.70;100.00;99967.19;4995934;28;20128;-69
2022/11/20 08:36:35;;;;;;;78.18;30.27;;;;;;;1.74;100.00;99979.28;4995839;28;20070;-70
2022/11/20 08:39:03;;;;;;;87.28;31.20;;;;;;;1.74;100.00;99974.06;4993970;28;20053;-70
2022/11/20 08:41:32;;;;;;;79.15;30.15;;;;;;;1.76;100.00;99964.47;4980632;28;20479;-70
2022/11/20 08:44:01;;;;;;;83.45;30.73;;;;;;;1.83;100.00;99974.81;5001011;28;20127;-70
2022/11/20 08:46:35;;;;;;;79.05;30.92;;;;;;;1.72;100.00;99949.75;4998335;28;20457;-70
2022/11/20 08:49:02;;;;;;;84.28;32.03;;;;;;;1.88;100.00;99978.19;4989208;28;20058;-68
2022/11/20 08:51:29;;;;;;;90.78;33.40;;;;;;;1.84;100.00;99976.53;4989684;28;20050;-70
2022/11/20 08:53:56;;;;;;;85.57;31.77;;;;;;;1.87;100.00;99979.09;4999530;28;20058;-68
2022/11/20 08:56:22;;;;;;;74.38;29.77;;;;;;;1.86;100.00;99982.59;4996922;28;20127;-70
2022/11/20 08:58:54;;;;;;;79.88;30.75;;;;;;;1.87;100.00;99986.91;4999776;28;20121;-70
2022/11/20 09:01:40;;;;;;;84.38;31.55;;;;;;;1.95;100.00;99985.00;4992302;28;20042;-69
2022/11/20 09:04:07;;;;;;;85.20;31.75;;;;;;;2.01;100.00;99974.47;4991383;28;20053;-70
2022/11/20 09:06:33;;;;;;;79.18;31.23;;;;;;;2.12;100.00;99980.34;5004397;28;20462;-69
2022/11/20 09:09:00;;;;;;;83.63;30.65;;;;;;;2.19;100.00;99981.09;4997076;28;20136;-68
2022/11/20 09:11:32;;;;;;;77.85;30.73;;;;;;;2.34;100.00;99965.09;4983779;28;20062;-68
2022/11/20 09:13:59;;;;;;;79.35;31.00;;;;;;;2.56;100.00;99968.97;5000784;28;20083;-68
2022/11/20 09:16:26;;;;;;;70.07;30.23;;;;;;;2.71;100.00;99973.88;4992766;28;20105;-69
2022/11/20 09:18:53;;;;;;;73.40;31.05;;;;;;;2.70;100.00;99973.91;5001897;28;20595;-68
2022/11/20 09:21:39;;;;;;;63.78;28.85;;;;;;;2.56;100.00;99978.56;4988393;28;20053;-68
2022/11/20 09:24:06;;;;;;;68.20;28.85;;;;;;;2.47;100.00;99983.13;4987586;28;20129;-68
2022/11/20 09:26:33;;;;;;;71.90;28.95;;;;;;;2.37;100.00;99973.72;5002271;28;20136;-68
2022/11/20 09:28:59;;;;;;;77.47;31.30;;;;;;;2.32;100.00;99952.06;4993100;28;20113;-68
2022/11/20 09:31:26;;;;;;;76.82;32.45;;;;;;;2.56;100.00;99968.97;4977102;28;20409;-69
2022/11/20 09:33:53;;;;;;;71.40;30.08;;;;;;;2.71;100.00;99975.63;4990428;28;20073;-69
2022/11/20 09:36:19;;;;;;;68.43;30.52;;;;;;;2.90;100.00;99983.94;4994299;28;20054;-68
2022/11/20 09:38:47;;;;;;;73.68;31.30;;;;;;;3.03;100.00;99970.53;4997311;28;20129;-68
2022/11/20 09:41:23;;;;;;;64.95;30.52;;;;;;;3.29;100.00;99985.66;4979564;28;20042;-68
2022/11/20 09:44:16;;;;;;;65.35;29.40;;;;;;;3.28;100.00;99983.06;4993636;28;20057;-71
2022/11/20 09:46:48;;;;;;;67.43;29.27;;;;;;;3.21;100.00;99956.16;4996310;28;20054;-69
2022/11/20 09:49:36;;;;;;;68.57;29.33;;;;;;;3.49;100.00;99974.66;5000884;28;20433;-69
2022/11/20 09:52:28;;;;;;;63.33;29.25;;;;;;;3.57;100.00;99972.75;4988919;28;20085;-69
2022/11/20 09:54:55;;;;;;;65.60;30.15;;;;;;;3.58;100.00;99965.75;4996327;28;20056;-69
2022/11/20 09:57:29;;;;;;;59.60;29.00;;;;;;;3.64;100.00;99970.81;4997996;28;20140;-68
2022/11/20 10:00:00;;;;;;;57.40;28.02;;;;;;;3.49;100.00;99969.44;4990453;28;20049;-70
2022/11/20 10:02:43;;;;;;;54.65;27.30;;;;;;;3.24;100.00;99960.47;4986150;28;20054;-70
2022/11/20 10:05:39;;;;;;;53.38;26.38;;;;;;;3.09;100.00;99970.41;4996214;28;20129;-69
2022/11/20 10:08:50;;;;;;;56.38;26.88;;;;;;;3.04;100.00;99968.78;4995637;28;20050;-70
2022/11/20 10:11:38;;;;;;;59.30;27.73;;;;;;;3.20;100.00;99971.91;4928241;29;20133;-70
2022/11/20 10:14:13;;;;;;;58.33;27.90;;;;;;;3.10;100.00;99943.34;4928935;28;20142;-70
2022/11/20 10:16:52;;;;;;;58.92;27.92;;;;;;;3.19;100.00;99963.19;4980080;28;20573;-69
2022/11/20 10:19:47;;;;;;;62.65;27.88;;;;;;;3.13;100.00;99959.00;4994216;28;20447;-70
2022/11/20 10:22:25;;;;;;;63.15;29.20;;;;;;;3.10;100.00;99958.19;4992725;28;20054;-69
2022/11/20 10:25:01;;;;;;;61.50;28.10;;;;;;;3.28;100.00;99956.91;4995828;28;20580;-69
2022/11/20 10:27:46;;;;;;;66.18;30.30;;;;;;;3.48;100.00;99950.25;4996906;28;20062;-69
2022/11/20 10:30:15;;;;;;;61.20;29.70;;;;;;;3.63;100.00;99954.22;4980981;28;20062;-70
2022/11/20 10:32:58;;;;;;;63.25;29.63;;;;;;;3.75;100.00;99956.56;4986034;28;20061;-69
2022/11/20 10:35:41;;;;;;;58.00;27.23;;;;;;;3.59;100.00;99920.34;5000247;28;20060;-68
2022/11/20 10:38:37;;;;;;;54.97;27.60;;;;;;;3.53;100.00;99947.53;4989331;28;20112;-69
2022/11/20 10:41:24;;;;;;;54.97;27.20;;;;;;;3.42;100.00;99939.09;4982079;28;20058;-69
2022/11/20 10:44:02;;;;;;;62.28;28.80;;;;;;;3.19;100.00;99929.19;4997571;28;20442;-69
2022/11/20 10:46:37;;;;;;;63.17;30.20;;;;;;;3.32;100.00;99946.28;4996119;28;20050;-71
2022/11/20 10:49:11;;;;;;;70.10;29.60;;;;;;;3.39;100.00;99932.16;4996408;28;20481;-69
2022/11/20 10:51:51;;;;;;;65.47;30.60;;;;;;;3.54;100.00;99938.78;4985773;28;20062;-70
2022/11/20 10:54:27;;;;;;;61.90;29.33;;;;;;;3.64;100.00;99935.00;4991987;28;20074;-70
2022/11/20 10:57:03;;;;;;;62.70;30.13;;;;;;;3.76;100.00;99929.47;5000278;28;20545;-70
2022/11/20 11:00:09;;;;;;;64.57;29.95;;;;;;;3.88;100.00;99933.50;4998320;28;20527;-71
2022/11/20 11:02:43;;;;;;;59.53;28.48;;;;;;;3.89;100.00;99924.75;4950574;28;20412;-70
2022/11/20 11:05:29;;;;;;;63.50;28.70;;;;;;;3.95;100.00;99923.72;4951092;28;20066;-70
2022/11/20 11:07:58;;;;;;;62.22;28.33;;;;;;;4.12;100.00;99918.84;4981847;28;20045;-69
2022/11/20 11:10:52;;;;;;;60.97;29.30;;;;;;;4.04;100.00;99882.41;4984114;28;20104;-70
2022/11/20 11:13:20;;;;;;;61.38;28.77;;;;;;;4.08;100.00;99927.72;4998318;28;20054;-73
2022/11/20 11:15:47;;;;;;;65.15;29.83;;;;;;;3.84;100.00;99917.00;4999763;28;20172;-70
2022/11/20 11:18:24;;;;;;;60.05;29.38;;;;;;;3.79;100.00;99926.75;5001219;28;20108;-70
2022/11/20 11:20:52;;;;;;;65.55;29.60;;;;;;;3.60;100.00;99912.44;4986548;28;20573;-71
2022/11/20 11:23:31;;;;;;;64.57;29.30;;;;;;;3.58;100.00;99913.38;5001201;28;20050;-70
2022/11/20 11:26:00;;;;;;;62.78;30.10;;;;;;;3.57;100.00;99912.53;4994305;28;20073;-70
2022/11/20 11:28:27;;;;;;;69.45;31.85;;;;;;;3.47;100.00;99884.84;4999028;28;20125;-70
2022/11/20 11:30:55;;;;;;;66.55;29.95;;;;;;;3.64;100.00;99911.44;4986606;28;20074;-72
2022/11/20 11:33:30;;;;;;;65.72;31.15;;;;;;;3.57;100.00;99896.81;4988131;28;20046;-70
2022/11/20 11:36:00;;;;;;;65.22;29.65;;;;;;;3.58;100.00;99897.69;5001008;28;20069;-72
2022/11/20 11:38:31;;;;;;;69.72;29.90;;;;;;;3.28;100.00;99832.16;4998032;28;20112;-70